createdAt,value
2019-01-14T00:00:41.378Z,100148.82
2019-01-14T00:01:46.452Z,100148.41
2019-01-14T00:02:51.176Z,100140.34
2019-01-14T00:03:57.323Z,100157.86
2019-01-14T00:05:02.547Z,100150.17
2019-01-14T00:06:10.491Z,100159.59
2019-01-14T00:07:16.059Z,100151.42
2019-01-14T00:08:21.297Z,100147.66
2019-01-14T00:09:31.177Z,100151.44
2019-01-14T00:10:40.772Z,100160.45
2019-01-14T00:11:57.865Z,100151.44
2019-01-14T00:13:03.284Z,100158.75
2019-01-14T00:14:15.486Z,100145.94
2019-01-14T00:15:24.488Z,100153.22
2019-01-14T00:16:29.473Z,100149.27
2019-01-14T00:17:34.143Z,100157.33
2019-01-14T00:18:39.264Z,100162.03
2019-01-14T00:19:51.107Z,100169.83
2019-01-14T00:21:03.485Z,100167.19
2019-01-14T00:22:16.148Z,100176.59
2019-01-14T00:23:23.082Z,100190.30
2019-01-14T00:24:31.468Z,100183.92
2019-01-14T00:25:39.811Z,100194.98
2019-01-14T00:26:50.171Z,100218.53
2019-01-14T00:27:57.581Z,100227.64
2019-01-14T00:29:04.740Z,100216.33
2019-01-14T00:30:16.090Z,100210.77
2019-01-14T00:31:23.691Z,100201.23
2019-01-14T00:32:37.126Z,100197.03
2019-01-14T00:33:42.978Z,100211.13
2019-01-14T00:34:48.220Z,100205.53
2019-01-14T00:35:57.916Z,100210.70
2019-01-14T00:37:02.533Z,100216.36
2019-01-14T00:38:10.568Z,100194.73
2019-01-14T00:39:18.409Z,100196.66
2019-01-14T00:40:25.942Z,100203.61
2019-01-14T00:41:35.833Z,100221.53
2019-01-14T00:42:45.856Z,100222.30
2019-01-14T00:43:51.294Z,100220.63
2019-01-14T00:45:00.240Z,100218.58
2019-01-14T00:46:05.759Z,100219.32
2019-01-14T00:47:15.178Z,100232.57
2019-01-14T00:48:23.612Z,100239.80
2019-01-14T00:49:37.658Z,100241.56
2019-01-14T00:50:47.353Z,100241.05
2019-01-14T00:51:52.597Z,100241.22
2019-01-14T00:52:58.372Z,100241.92
2019-01-14T00:54:03.702Z,100236.45
2019-01-14T00:55:08.987Z,100231.39
2019-01-14T00:56:21.251Z,100231.87
2019-01-14T00:57:26.945Z,100232.31
2019-01-14T00:58:35.509Z,100228.89
2019-01-14T00:59:44.113Z,100220.25
2019-01-14T01:00:51.519Z,100227.93
2019-01-14T01:02:02.170Z,100231.77
2019-01-14T01:03:12.893Z,100230.14
2019-01-14T01:04:15.777Z,100230.62
2019-01-14T01:05:23.739Z,100229.12
2019-01-14T01:06:31.452Z,100227.84
2019-01-14T01:07:36.698Z,100233.27
2019-01-14T01:08:53.277Z,100231.92
2019-01-14T01:10:09.643Z,100233.69
2019-01-14T01:11:18.474Z,100236.77
2019-01-14T01:12:28.150Z,100238.94
2019-01-14T01:13:42.643Z,100241.92
2019-01-14T01:14:54.175Z,100243.20
2019-01-14T01:16:06.734Z,100243.71
2019-01-14T01:17:17.659Z,100244.58
2019-01-14T01:18:31.054Z,100244.58
2019-01-14T01:19:56.815Z,100236.16
2019-01-14T01:21:07.086Z,100240.09
2019-01-14T01:22:20.977Z,100234.42
2019-01-14T01:23:48.626Z,100234.88
2019-01-14T01:24:53.677Z,100233.53
2019-01-14T01:25:58.685Z,100239.80
2019-01-14T01:27:04.347Z,100240.19
2019-01-14T01:28:09.620Z,100246.94
2019-01-14T01:29:14.755Z,100239.67
2019-01-14T01:30:20.352Z,100246.01
2019-01-14T01:31:25.766Z,100244.41
2019-01-14T01:32:46.751Z,100250.75
2019-01-14T01:33:55.845Z,100246.39
2019-01-14T01:35:07.790Z,100256.94
2019-01-14T01:36:12.990Z,100257.05
2019-01-14T01:37:20.099Z,100255.70
2019-01-14T01:38:35.755Z,100265.14
2019-01-14T01:39:45.790Z,100265.90
2019-01-14T01:41:02.901Z,100266.42
2019-01-14T01:42:11.622Z,100269.33
2019-01-14T01:43:34.796Z,100267.73
2019-01-14T01:44:48.680Z,100276.25
2019-01-14T01:46:02.125Z,100275.00
2019-01-14T01:47:26.590Z,100281.36
2019-01-14T01:48:31.706Z,100280.50
2019-01-14T01:49:39.848Z,100276.17
2019-01-14T01:50:45.850Z,100276.66
2019-01-14T01:51:56.989Z,100278.35
2019-01-14T01:53:02.865Z,100280.91
2019-01-14T01:54:09.180Z,100279.29
2019-01-14T01:55:14.205Z,100283.58
2019-01-14T01:56:20.377Z,100283.20
2019-01-14T01:57:25.724Z,100295.92
2019-01-14T01:58:36.513Z,100300.15
2019-01-14T01:59:43.091Z,100295.89
2019-01-14T02:00:57.208Z,100301.13
2019-01-14T02:02:03.139Z,100299.88
2019-01-14T02:03:08.883Z,100306.34
2019-01-14T02:04:16.997Z,100304.99
2019-01-14T02:05:21.925Z,100304.95
2019-01-14T02:06:27.862Z,100307.52
2019-01-14T02:07:34.205Z,100310.50
2019-01-14T02:08:40.528Z,100313.61
2019-01-14T02:09:50.612Z,100305.52
2019-01-14T02:10:55.377Z,100304.30
2019-01-14T02:12:01.501Z,100314.03
2019-01-14T02:13:10.895Z,100313.99
2019-01-14T02:14:17.568Z,100316.00
2019-01-14T02:15:23.312Z,100314.34
2019-01-14T02:16:30.768Z,100315.62
2019-01-14T02:17:37.065Z,100322.16
2019-01-14T02:18:41.798Z,100320.36
2019-01-14T02:19:46.713Z,100317.97
2019-01-14T02:20:52.232Z,100325.23
2019-01-14T02:21:57.564Z,100326.97
2019-01-14T02:23:04.673Z,100325.20
2019-01-14T02:24:14.691Z,100324.92
2019-01-14T02:25:20.433Z,100328.35
2019-01-14T02:26:27.689Z,100328.42
2019-01-14T02:27:35.858Z,100325.90
2019-01-14T02:28:40.890Z,100328.53
2019-01-14T02:29:48.145Z,100332.33
2019-01-14T02:30:53.696Z,100327.28
2019-01-14T02:31:59.192Z,100327.31
2019-01-14T02:33:04.604Z,100332.02
2019-01-14T02:34:09.413Z,100334.20
2019-01-14T02:35:14.966Z,100334.16
2019-01-14T02:36:21.296Z,100338.59
2019-01-14T02:37:25.991Z,100333.02
2019-01-14T02:38:34.729Z,100338.59
2019-01-14T02:39:40.304Z,100337.66
2019-01-14T02:40:45.475Z,100341.09
2019-01-14T02:41:51.519Z,100352.16
2019-01-14T02:43:00.915Z,100347.55
2019-01-14T02:44:06.190Z,100350.98
2019-01-14T02:45:11.613Z,100349.70
2019-01-14T02:46:16.733Z,100347.20
2019-01-14T02:47:21.848Z,100348.84
2019-01-14T02:48:26.835Z,100358.73
2019-01-14T02:49:32.839Z,100357.42
2019-01-14T02:50:39.621Z,100357.48
2019-01-14T02:51:44.812Z,100356.11
2019-01-14T02:52:50.598Z,100354.86
2019-01-14T02:53:56.787Z,100355.73
2019-01-14T02:55:02.095Z,100351.11
2019-01-14T02:56:12.900Z,100354.09
2019-01-14T02:57:24.477Z,100354.00
2019-01-14T02:58:42.838Z,100351.50
2019-01-14T02:59:53.838Z,100356.34
2019-01-14T03:01:00.978Z,100353.27
2019-01-14T03:02:06.019Z,100353.27
2019-01-14T03:03:11.620Z,100368.50
2019-01-14T03:04:17.071Z,100365.17
2019-01-14T03:05:27.363Z,100360.81
2019-01-14T03:06:42.287Z,100368.09
2019-01-14T03:07:50.451Z,100373.70
2019-01-14T03:08:56.701Z,100373.31
2019-01-14T03:10:04.900Z,100373.66
2019-01-14T03:11:09.920Z,100387.69
2019-01-14T03:12:17.182Z,100385.13
2019-01-14T03:13:22.858Z,100388.63
2019-01-14T03:14:34.621Z,100382.25
2019-01-14T03:15:41.921Z,100387.44
2019-01-14T03:16:48.193Z,100395.61
2019-01-14T03:17:53.399Z,100390.52
2019-01-14T03:18:59.346Z,100389.75
2019-01-14T03:20:07.460Z,100396.89
2019-01-14T03:21:12.784Z,100395.55
2019-01-14T03:22:17.767Z,100401.50
2019-01-14T03:23:23.083Z,100397.66
2019-01-14T03:24:31.686Z,100401.95
2019-01-14T03:25:36.282Z,100395.61
2019-01-14T03:26:41.676Z,100388.38
2019-01-14T03:27:47.042Z,100394.74
2019-01-14T03:28:52.527Z,100395.16
2019-01-14T03:29:57.980Z,100398.62
2019-01-14T03:31:07.848Z,100398.66
2019-01-14T03:32:13.609Z,100402.05
2019-01-14T03:33:21.722Z,100405.45
2019-01-14T03:34:27.422Z,100402.47
2019-01-14T03:35:37.607Z,100403.78
2019-01-14T03:36:42.247Z,100409.36
2019-01-14T03:37:51.510Z,100406.31
2019-01-14T03:38:59.094Z,100414.03
2019-01-14T03:40:06.407Z,100416.98
2019-01-14T03:41:13.092Z,100419.16
2019-01-14T03:42:24.165Z,100423.38
2019-01-14T03:43:29.765Z,100416.11
2019-01-14T03:44:41.574Z,100416.11
2019-01-14T03:45:53.726Z,100420.83
2019-01-14T03:47:02.769Z,100409.39
2019-01-14T03:48:07.965Z,100410.88
2019-01-14T03:49:19.334Z,100410.09
2019-01-14T03:50:27.521Z,100413.48
2019-01-14T03:51:36.178Z,100419.30
2019-01-14T03:52:55.889Z,100420.55
2019-01-14T03:54:16.037Z,100426.16
2019-01-14T03:55:21.266Z,100423.14
2019-01-14T03:56:29.190Z,100417.11
2019-01-14T03:57:39.294Z,100417.19
2019-01-14T03:58:55.792Z,100426.19
2019-01-14T04:00:14.195Z,100428.72
2019-01-14T04:01:31.772Z,100426.98
2019-01-14T04:03:04.534Z,100429.66
2019-01-14T04:04:19.929Z,100432.56
2019-01-14T04:05:55.879Z,100427.54
2019-01-14T04:07:13.898Z,100428.92
2019-01-14T04:08:31.432Z,100429.76
2019-01-14T04:09:46.691Z,100436.09
2019-01-14T04:11:13.382Z,100430.11
2019-01-14T04:12:20.789Z,100441.19
2019-01-14T04:13:41.416Z,100428.78
2019-01-14T04:14:52.862Z,100441.11
2019-01-14T04:16:15.245Z,100438.96
2019-01-14T04:17:23.371Z,100430.52
2019-01-14T04:18:38.197Z,100431.80
2019-01-14T04:19:46.573Z,100443.33
2019-01-14T04:20:57.509Z,100444.16
2019-01-14T04:22:05.495Z,100448.11
2019-01-14T04:23:15.444Z,100445.48
2019-01-14T04:24:24.573Z,100446.31
2019-01-14T04:25:34.276Z,100447.10
2019-01-14T04:26:41.094Z,100447.45
2019-01-14T04:27:49.117Z,100443.75
2019-01-14T04:28:58.077Z,100440.66
2019-01-14T04:30:02.367Z,100449.70
2019-01-14T04:31:13.132Z,100446.23
2019-01-14T04:32:18.276Z,100440.73
2019-01-14T04:33:29.007Z,100449.70
2019-01-14T04:34:42.903Z,100458.22
2019-01-14T04:35:52.184Z,100451.33
2019-01-14T04:36:57.881Z,100457.77
2019-01-14T04:38:04.666Z,100462.78
2019-01-14T04:39:11.665Z,100460.22
2019-01-14T04:40:19.307Z,100463.12
2019-01-14T04:41:27.084Z,100457.09
2019-01-14T04:42:34.546Z,100464.02
2019-01-14T04:43:45.048Z,100462.33
2019-01-14T04:44:57.822Z,100465.72
2019-01-14T04:46:08.421Z,100463.61
2019-01-14T04:47:25.081Z,100462.70
2019-01-14T04:48:30.429Z,100469.14
2019-01-14T04:51:06.313Z,100479.39
2019-01-14T04:52:18.313Z,100472.53
2019-01-14T04:53:30.218Z,100473.45
2019-01-14T04:54:38.388Z,100470.88
2019-01-14T04:55:45.869Z,100478.98
2019-01-14T04:56:55.584Z,100475.14
2019-01-14T04:58:01.347Z,100476.05
2019-01-14T04:59:09.645Z,100478.11
2019-01-14T05:00:20.267Z,100473.45
2019-01-14T05:01:27.921Z,100478.16
2019-01-14T05:02:33.322Z,100480.23
2019-01-14T05:03:39.718Z,100485.69
2019-01-14T05:04:44.583Z,100480.52
2019-01-14T05:05:49.930Z,100490.28
2019-01-14T05:07:00.991Z,100493.38
2019-01-14T05:08:05.788Z,100495.06
2019-01-14T05:09:10.625Z,100498.00
2019-01-14T05:10:16.752Z,100496.69
2019-01-14T05:11:24.641Z,100487.75
2019-01-14T05:12:29.926Z,100488.66
2019-01-14T05:13:39.200Z,100498.88
2019-01-14T05:14:47.140Z,100498.49
2019-01-14T05:15:55.188Z,100494.31
2019-01-14T05:17:05.434Z,100495.19
2019-01-14T05:18:14.422Z,100493.41
2019-01-14T05:19:20.041Z,100498.61
2019-01-14T05:20:27.803Z,100493.41
2019-01-14T05:21:33.925Z,100495.14
2019-01-14T05:22:53.695Z,100497.70
2019-01-14T05:23:51.340Z,100499.36
2019-01-14T05:24:57.491Z,100504.48
2019-01-14T05:26:07.086Z,100497.78
2019-01-14T05:27:12.865Z,100510.97
2019-01-14T05:28:17.743Z,100517.78
2019-01-14T05:29:25.454Z,100510.52
2019-01-14T05:30:34.396Z,100507.50
2019-01-14T05:31:42.543Z,100515.72
2019-01-14T05:32:50.748Z,100522.84
2019-01-14T05:33:56.267Z,100520.73
2019-01-14T05:35:01.530Z,100507.05
2019-01-14T05:36:07.244Z,100504.48
2019-01-14T05:37:12.084Z,100503.62
2019-01-14T05:38:19.307Z,100509.11
2019-01-14T05:39:27.172Z,100503.54
2019-01-14T05:40:32.529Z,100503.20
2019-01-14T05:41:38.388Z,100511.76
2019-01-14T05:42:46.486Z,100503.20
2019-01-14T05:43:53.986Z,100504.94
2019-01-14T05:44:59.073Z,100516.84
2019-01-14T05:46:06.130Z,100527.42
2019-01-14T05:47:13.365Z,100527.09
2019-01-14T05:48:18.725Z,100528.00
2019-01-14T05:49:25.248Z,100525.81
2019-01-14T05:50:30.691Z,100529.69
2019-01-14T05:51:36.775Z,100521.97
2019-01-14T05:52:50.643Z,100528.00
2019-01-14T05:54:00.363Z,100529.66
2019-01-14T05:55:08.626Z,100531.14
2019-01-14T05:56:14.503Z,100531.27
2019-01-14T05:57:25.956Z,100533.08
2019-01-14T05:58:31.308Z,100534.32
2019-01-14T05:59:36.168Z,100548.33
2019-01-14T06:00:51.090Z,100549.48
2019-01-14T06:01:57.187Z,100550.73
2019-01-14T06:03:04.778Z,100549.23
2019-01-14T06:04:09.672Z,100550.20
2019-01-14T06:05:14.731Z,100557.07
2019-01-14T06:06:20.154Z,100553.56
2019-01-14T06:07:25.823Z,100556.47
2019-01-14T06:09:14.119Z,100557.22
2019-01-14T06:10:20.719Z,100560.58
2019-01-14T06:11:33.145Z,100560.80
2019-01-14T06:12:37.902Z,100564.59
2019-01-14T06:13:46.803Z,100563.73
2019-01-14T06:15:06.470Z,100555.47
2019-01-14T06:16:13.360Z,100566.67
2019-01-14T06:17:26.358Z,100563.98
2019-01-14T06:18:33.490Z,100573.28
2019-01-14T06:19:46.836Z,100569.77
2019-01-14T06:21:25.463Z,100572.66
2019-01-14T06:22:54.996Z,100568.81
2019-01-14T06:24:15.242Z,100579.89
2019-01-14T06:25:29.584Z,100574.77
2019-01-14T06:26:50.621Z,100577.78
2019-01-14T06:28:54.026Z,100582.33
2019-01-14T06:30:11.763Z,100580.63
2019-01-14T06:31:17.488Z,100576.80
2019-01-14T06:32:31.824Z,100577.66
2019-01-14T06:34:06.221Z,100583.65
2019-01-14T06:35:15.008Z,100576.13
2019-01-14T06:36:39.231Z,100581.89
2019-01-14T06:37:51.932Z,100578.59
2019-01-14T06:38:54.966Z,100587.05
2019-01-14T06:40:02.018Z,100576.35
2019-01-14T06:41:07.624Z,100581.52
2019-01-14T06:50:28.521Z,100582.52
2019-01-14T06:51:41.382Z,100581.07
2019-01-14T06:52:46.809Z,100590.25
2019-01-14T06:53:57.767Z,100594.22
2019-01-14T06:55:02.977Z,100596.83
2019-01-14T06:56:08.189Z,100599.75
2019-01-14T06:57:13.293Z,100606.12
2019-01-14T06:58:20.325Z,100604.38
2019-01-14T06:59:28.793Z,100612.32
2019-01-14T07:00:38.207Z,100614.92
2019-01-14T07:01:49.384Z,100610.59
2019-01-14T07:02:55.791Z,100610.22
2019-01-14T07:04:06.046Z,100613.05
2019-01-14T07:05:20.551Z,100616.44
2019-01-14T07:06:25.994Z,100623.80
2019-01-14T07:07:34.364Z,100612.60
2019-01-14T07:08:41.818Z,100625.33
2019-01-14T07:09:47.947Z,100626.97
2019-01-14T07:10:55.635Z,100625.60
2019-01-14T07:12:05.506Z,100632.64
2019-01-14T07:13:21.215Z,100631.40
2019-01-14T07:14:29.823Z,100626.78
2019-01-14T07:15:46.576Z,100627.52
2019-01-14T07:16:56.815Z,100630.95
2019-01-14T07:18:31.576Z,100637.03
2019-01-14T07:20:20.033Z,100635.20
2019-01-14T07:30:04.678Z,100645.34
2019-01-14T07:31:15.026Z,100651.20
2019-01-14T07:32:21.286Z,100655.00
2019-01-14T07:33:26.252Z,100660.58
2019-01-14T07:34:35.610Z,100661.41
2019-01-14T07:35:39.697Z,100666.48
2019-01-14T07:36:45.168Z,100665.66
2019-01-14T07:38:07.241Z,100658.52
2019-01-14T07:39:17.399Z,100662.72
2019-01-14T07:40:23.417Z,100673.39
2019-01-14T07:41:35.296Z,100670.83
2019-01-14T07:42:43.443Z,100669.45
2019-01-14T07:43:50.303Z,100679.33
2019-01-14T07:44:57.538Z,100675.99
2019-01-14T07:46:02.779Z,100681.12
2019-01-14T07:47:12.456Z,100681.26
2019-01-14T07:48:22.899Z,100683.49
2019-01-14T07:49:34.138Z,100688.48
2019-01-14T07:50:39.234Z,100684.69
2019-01-14T07:51:44.806Z,100694.97
2019-01-14T07:52:52.586Z,100708.79
2019-01-14T07:53:58.295Z,100717.20
2019-01-14T07:55:07.805Z,100724.87
2019-01-14T07:56:19.596Z,100728.97
2019-01-14T07:57:25.268Z,100730.71
2019-01-14T07:58:35.364Z,100731.13
2019-01-14T07:59:42.087Z,100740.45
2019-01-14T08:00:49.717Z,100744.44
2019-01-14T08:02:01.663Z,100741.97
2019-01-14T08:03:15.624Z,100743.16
2019-01-14T08:04:20.741Z,100744.03
2019-01-14T08:14:51.930Z,100755.73
2019-01-14T08:15:59.245Z,100765.83
2019-01-14T08:17:08.861Z,100768.23
2019-01-14T08:18:14.406Z,100771.71
2019-01-14T08:19:23.631Z,100773.91
2019-01-14T08:20:30.213Z,100776.64
2019-01-14T08:21:36.510Z,100790.61
2019-01-14T08:22:45.197Z,100794.38
2019-01-14T08:23:50.463Z,100793.27
2019-01-14T08:24:57.655Z,100795.53
2019-01-14T08:26:13.025Z,100805.94
2019-01-14T08:27:35.922Z,100811.05
2019-01-14T08:28:45.902Z,100809.14
2019-01-14T08:30:24.117Z,100817.28
2019-01-14T08:32:19.166Z,100824.25
2019-01-14T08:33:35.322Z,100834.34
2019-01-14T08:35:13.016Z,100831.86
2019-01-14T08:36:18.044Z,100836.34
2019-01-14T08:37:29.729Z,100846.12
2019-01-14T08:38:37.091Z,100841.06
2019-01-14T08:39:53.503Z,100849.09
2019-01-14T08:41:05.589Z,100842.10
2019-01-14T08:42:11.584Z,100842.06
2019-01-14T08:43:19.326Z,100844.14
2019-01-14T08:44:30.479Z,100853.16
2019-01-14T08:45:41.474Z,100862.58
2019-01-14T08:46:46.747Z,100870.54
2019-01-14T08:47:56.938Z,100869.77
2019-01-14T08:49:01.933Z,100872.45
2019-01-14T08:50:11.673Z,100870.47
2019-01-14T08:51:16.703Z,100871.70
2019-01-14T08:52:22.733Z,100872.16
2019-01-14T08:53:28.457Z,100882.16
2019-01-14T08:54:34.126Z,100875.20
2019-01-14T08:55:42.412Z,100874.77
2019-01-14T08:56:47.713Z,100875.59
2019-01-14T08:57:55.460Z,100877.68
2019-01-14T08:59:04.449Z,100878.50
2019-01-14T09:00:20.889Z,100873.89
2019-01-14T09:01:25.846Z,100872.69
2019-01-14T09:02:30.824Z,100879.27
2019-01-14T09:03:35.428Z,100878.50
2019-01-14T09:04:40.098Z,100881.13
2019-01-14T09:05:50.625Z,100883.44
2019-01-14T09:06:57.833Z,100885.77
2019-01-14T09:08:09.757Z,100890.31
2019-01-14T09:09:18.222Z,100888.80
2019-01-14T09:10:27.855Z,100887.22
2019-01-14T09:11:37.554Z,100888.73
2019-01-14T09:12:44.194Z,100894.08
2019-01-14T09:13:49.906Z,100884.15
2019-01-14T09:14:57.605Z,100878.96
2019-01-14T09:16:03.660Z,100880.89
2019-01-14T09:17:14.968Z,100880.77
2019-01-14T09:18:35.286Z,100886.42
2019-01-14T09:19:47.037Z,100893.28
2019-01-14T09:20:54.821Z,100887.86
2019-01-14T09:22:02.134Z,100896.83
2019-01-14T09:23:10.492Z,100902.80
2019-01-14T09:24:18.130Z,100895.23
2019-01-14T09:25:27.179Z,100903.92
2019-01-14T09:26:32.712Z,100899.32
2019-01-14T09:27:37.622Z,100900.12
2019-01-14T09:28:42.996Z,100904.13
2019-01-14T09:29:48.845Z,100904.39
2019-01-14T09:30:56.938Z,100904.45
2019-01-14T09:32:05.374Z,100900.61
2019-01-14T09:33:13.825Z,100898.36
2019-01-14T09:34:19.137Z,100898.30
2019-01-14T09:35:27.685Z,100900.91
2019-01-14T09:36:32.565Z,100900.94
2019-01-14T09:37:37.554Z,100899.73
2019-01-14T09:38:42.536Z,100899.39
2019-01-14T09:39:47.584Z,100900.31
2019-01-14T09:40:55.756Z,100901.92
2019-01-14T09:42:02.175Z,100900.59
2019-01-14T09:43:08.155Z,100908.48
2019-01-14T09:44:14.633Z,100907.06
2019-01-14T09:45:21.074Z,100908.22
2019-01-14T09:46:26.288Z,100910.72
2019-01-14T09:47:34.437Z,100913.05
2019-01-14T09:48:45.366Z,100910.03
2019-01-14T09:49:54.460Z,100907.50
2019-01-14T09:50:59.819Z,100916.02
2019-01-14T09:52:05.624Z,100915.16
2019-01-14T09:53:10.532Z,100923.15
2019-01-14T09:54:17.216Z,100921.97
2019-01-14T09:55:24.598Z,100932.00
2019-01-14T09:56:31.615Z,100926.52
2019-01-14T09:57:41.224Z,100932.87
2019-01-14T09:58:46.662Z,100933.42
2019-01-14T09:59:51.729Z,100928.33
2019-01-14T10:00:57.303Z,100942.17
2019-01-14T10:02:02.202Z,100947.14
2019-01-14T10:03:07.341Z,100940.67
2019-01-14T10:04:12.599Z,100946.67
2019-01-14T10:05:18.942Z,100954.83
2019-01-14T10:06:23.780Z,100953.31
2019-01-14T10:07:28.701Z,100955.19
2019-01-14T10:08:33.487Z,100955.65
2019-01-14T10:09:38.798Z,100949.28
2019-01-14T10:10:43.957Z,100951.70
2019-01-14T10:11:48.868Z,100948.27
2019-01-14T10:12:53.668Z,100948.65
2019-01-14T10:13:59.020Z,100952.80
2019-01-14T10:15:04.208Z,100951.45
2019-01-14T10:16:09.460Z,100955.03
2019-01-14T10:17:15.044Z,100955.48
2019-01-14T10:18:19.868Z,100963.04
2019-01-14T10:19:24.751Z,100959.72
2019-01-14T10:20:30.615Z,100959.23
2019-01-14T10:21:37.523Z,100957.27
2019-01-14T10:22:43.520Z,100953.97
2019-01-14T10:23:50.638Z,100959.22
2019-01-14T10:24:56.034Z,100956.88
2019-01-14T10:26:03.086Z,100958.04
2019-01-14T10:27:08.143Z,100967.16
2019-01-14T10:28:15.447Z,100972.91
2019-01-14T10:29:20.691Z,100976.17
2019-01-14T10:30:25.610Z,100965.53
2019-01-14T10:31:30.535Z,100977.75
2019-01-14T10:32:35.767Z,100980.66
2019-01-14T10:33:40.935Z,100982.36
2019-01-14T10:34:46.582Z,100980.78
2019-01-14T10:35:51.177Z,100982.63
2019-01-14T10:36:55.965Z,100981.52
2019-01-14T10:38:01.126Z,100985.43
2019-01-14T10:39:07.487Z,100980.33
2019-01-14T10:40:13.426Z,100987.20
2019-01-14T10:41:18.767Z,100989.97
2019-01-14T10:42:23.305Z,100993.73
2019-01-14T10:43:28.467Z,100989.06
2019-01-14T10:44:33.386Z,100989.79
2019-01-14T10:45:38.192Z,100993.14
2019-01-14T10:46:43.019Z,101002.85
2019-01-14T10:47:47.845Z,100997.98
2019-01-14T10:48:53.217Z,100994.20
2019-01-14T10:49:58.128Z,100996.63
2019-01-14T10:51:03.192Z,100992.64
2019-01-14T10:52:08.505Z,100992.83
2019-01-14T10:53:13.745Z,100990.77
2019-01-14T10:54:18.233Z,100993.41
2019-01-14T10:55:23.049Z,100989.66
2019-01-14T10:56:27.607Z,100994.02
2019-01-14T10:57:32.591Z,100998.12
2019-01-14T10:58:37.554Z,100999.01
2019-01-14T10:59:42.894Z,100990.53
2019-01-14T11:00:51.996Z,100991.08
2019-01-14T11:01:54.686Z,100997.27
2019-01-14T11:03:00.765Z,100997.94
2019-01-14T11:04:05.529Z,101004.80
2019-01-14T11:05:11.572Z,100998.19
2019-01-14T11:06:16.458Z,100996.03
2019-01-14T11:07:21.052Z,101008.86
2019-01-14T11:08:26.391Z,101033.80
2019-01-14T11:09:31.550Z,101032.72
2019-01-14T11:10:36.435Z,101027.02
2019-01-14T11:11:41.331Z,101028.25
2019-01-14T11:12:46.181Z,101031.41
2019-01-14T11:13:51.101Z,101036.09
2019-01-14T11:15:02.781Z,101043.85
2019-01-14T11:16:05.316Z,101043.32
2019-01-14T11:17:10.241Z,101052.87
2019-01-14T11:18:15.128Z,101045.98
2019-01-14T11:19:20.591Z,101038.55
2019-01-14T11:20:34.861Z,101030.98
2019-01-14T11:21:40.099Z,101029.64
2019-01-14T11:22:45.779Z,101032.56
2019-01-14T11:23:50.826Z,101028.95
2019-01-14T11:24:55.619Z,101042.22
2019-01-14T11:26:00.195Z,101036.55
2019-01-14T11:27:05.075Z,101039.52
2019-01-14T11:28:10.921Z,101042.02
2019-01-14T11:29:15.820Z,101041.39
2019-01-14T11:30:23.178Z,101039.52
2019-01-14T11:31:28.574Z,101040.70
2019-01-14T11:32:33.162Z,101041.46
2019-01-14T11:33:41.077Z,101036.66
2019-01-14T11:34:46.377Z,101044.88
2019-01-14T11:35:52.339Z,101046.78
2019-01-14T11:36:57.271Z,101046.11
2019-01-14T11:38:02.840Z,101048.88
2019-01-14T11:39:16.034Z,101052.22
2019-01-14T11:40:26.046Z,101045.75
2019-01-14T11:41:30.699Z,101047.14
2019-01-14T11:42:35.318Z,101044.88
2019-01-14T11:43:41.116Z,101044.39
2019-01-14T11:44:45.646Z,101060.66
2019-01-14T11:45:50.786Z,101062.16
2019-01-14T11:46:56.108Z,101065.64
2019-01-14T11:48:00.662Z,101073.98
2019-01-14T11:49:07.339Z,101064.50
2019-01-14T11:50:13.646Z,101068.58
2019-01-14T11:51:18.590Z,101065.71
2019-01-14T11:52:23.801Z,101061.92
2019-01-14T11:53:28.701Z,101066.58
2019-01-14T11:54:33.998Z,101064.94
2019-01-14T11:55:38.946Z,101068.69
2019-01-14T11:56:44.200Z,101072.95
2019-01-14T11:57:48.941Z,101079.55
2019-01-14T11:58:53.459Z,101071.77
2019-01-14T11:59:59.022Z,101069.94
2019-01-14T12:01:04.235Z,101071.67
2019-01-14T12:02:11.661Z,101063.92
2019-01-14T12:03:16.687Z,101074.75
2019-01-14T12:04:21.505Z,101070.66
2019-01-14T12:05:26.763Z,101075.62
2019-01-14T12:06:32.121Z,101070.20
2019-01-14T12:07:37.007Z,101058.51
2019-01-14T12:08:41.887Z,101066.54
2019-01-14T12:09:46.859Z,101067.72
2019-01-14T12:10:52.110Z,101069.30
2019-01-14T12:11:57.323Z,101064.27
2019-01-14T12:13:02.330Z,101068.44
2019-01-14T12:14:07.233Z,101064.11
2019-01-14T12:15:15.772Z,101068.05
2019-01-14T12:16:21.005Z,101075.89
2019-01-14T12:17:25.953Z,101074.85
2019-01-14T12:18:31.228Z,101069.09
2019-01-14T12:19:36.311Z,101077.83
2019-01-14T12:20:41.593Z,101087.98
2019-01-14T12:21:46.585Z,101086.06
2019-01-14T12:22:51.573Z,101090.23
2019-01-14T12:23:56.815Z,101095.48
2019-01-14T12:25:01.663Z,101095.88
2019-01-14T12:26:06.526Z,101106.95
2019-01-14T12:27:11.829Z,101105.91
2019-01-14T12:28:16.687Z,101106.66
2019-01-14T12:29:21.885Z,101103.39
2019-01-14T12:30:35.082Z,101106.12
2019-01-14T12:31:41.469Z,101104.23
2019-01-14T12:32:46.694Z,101098.78
2019-01-14T12:33:51.654Z,101100.56
2019-01-14T12:34:56.215Z,101096.30
2019-01-14T12:36:01.608Z,101097.61
2019-01-14T12:37:06.490Z,101093.45
2019-01-14T12:38:11.510Z,101095.88
2019-01-14T12:39:19.695Z,101105.34
2019-01-14T12:40:25.230Z,101096.39
2019-01-14T12:41:29.979Z,101092.23
2019-01-14T12:42:34.979Z,101099.82
2019-01-14T12:43:40.753Z,101093.64
2019-01-14T12:44:45.711Z,101099.80
2019-01-14T12:45:50.334Z,101092.34
2019-01-14T12:46:54.941Z,101096.31
2019-01-14T12:47:59.752Z,101098.68
2019-01-14T12:49:04.749Z,101105.19
2019-01-14T12:50:11.943Z,101108.05
2019-01-14T12:51:17.536Z,101106.09
2019-01-14T12:52:22.409Z,101103.66
2019-01-14T12:53:27.579Z,101103.45
2019-01-14T12:54:32.390Z,101102.41
2019-01-14T12:55:37.284Z,101100.55
2019-01-14T12:56:42.116Z,101093.50
2019-01-14T12:57:47.483Z,101091.73
2019-01-14T12:58:52.840Z,101094.30
2019-01-14T12:59:57.672Z,101092.14
2019-01-14T13:01:02.757Z,101096.39
2019-01-14T13:02:07.575Z,101081.57
2019-01-14T13:03:12.363Z,101083.00
2019-01-14T13:04:17.156Z,101084.66
2019-01-14T13:05:22.351Z,101084.63
2019-01-14T13:06:27.342Z,101082.00
2019-01-14T13:07:32.900Z,101080.69
2019-01-14T13:08:38.243Z,101092.44
2019-01-14T13:09:43.034Z,101082.41
2019-01-14T13:10:47.895Z,101087.09
2019-01-14T13:11:52.726Z,101084.90
2019-01-14T13:12:57.933Z,101093.50
2019-01-14T13:14:02.845Z,101089.82
2019-01-14T13:15:10.336Z,101090.25
2019-01-14T13:16:16.734Z,101097.59
2019-01-14T13:17:22.015Z,101100.02
2019-01-14T13:18:26.877Z,101108.01
2019-01-14T13:19:31.723Z,101110.16
2019-01-14T13:20:36.587Z,101124.44
2019-01-14T13:21:41.461Z,101125.94
2019-01-14T13:22:46.737Z,101134.91
2019-01-14T13:23:51.759Z,101148.21
2019-01-14T13:24:57.105Z,101162.55
2019-01-14T13:26:01.999Z,101170.44
2019-01-14T13:27:07.770Z,101173.28